sensor_id;sensor_type;location;lat;lon;timestamp;temperature;humidity
35680;DHT22;21803;53.586;10.040;2022-12-15T00:02:29;16.80;42.40
35680;DHT22;21803;53.586;10.040;2022-12-15T00:05:13;16.80;42.30
35680;DHT22;21803;53.586;10.040;2022-12-15T00:08:08;16.80;42.30
35680;DHT22;21803;53.586;10.040;2022-12-15T00:10:53;16.80;42.30
35680;DHT22;21803;53.586;10.040;2022-12-15T00:13:36;16.80;42.30
35680;DHT22;21803;53.586;10.040;2022-12-15T00:16:21;16.80;42.40
35680;DHT22;21803;53.586;10.040;2022-12-15T00:19:05;16.80;42.30
35680;DHT22;21803;53.586;10.040;2022-12-15T00:21:49;16.80;42.40
35680;DHT22;21803;53.586;10.040;2022-12-15T00:24:33;16.80;42.40
35680;DHT22;21803;53.586;10.040;2022-12-15T00:27:17;16.80;42.40
35680;DHT22;21803;53.586;10.040;2022-12-15T00:30:02;16.80;42.40
35680;DHT22;21803;53.586;10.040;2022-12-15T00:32:46;16.80;42.40
35680;DHT22;21803;53.586;10.040;2022-12-15T00:35:30;16.80;42.40
35680;DHT22;21803;53.586;10.040;2022-12-15T00:38:14;16.80;42.40
35680;DHT22;21803;53.586;10.040;2022-12-15T00:41:00;16.80;42.40
35680;DHT22;21803;53.586;10.040;2022-12-15T00:43:30;16.80;42.40
35680;DHT22;21803;53.586;10.040;2022-12-15T00:45:55;16.80;42.40
35680;DHT22;21803;53.586;10.040;2022-12-15T00:48:40;16.80;42.40
35680;DHT22;21803;53.586;10.040;2022-12-15T00:51:06;16.80;42.40
35680;DHT22;21803;53.586;10.040;2022-12-15T00:53:32;16.80;42.40
35680;DHT22;21803;53.586;10.040;2022-12-15T00:56:16;16.80;42.40
35680;DHT22;21803;53.586;10.040;2022-12-15T00:59:00;16.80;42.40
35680;DHT22;21803;53.586;10.040;2022-12-15T01:01:44;16.80;42.40
35680;DHT22;21803;53.586;10.040;2022-12-15T01:04:28;16.80;42.40
35680;DHT22;21803;53.586;10.040;2022-12-15T01:07:12;16.80;42.40
35680;DHT22;21803;53.586;10.040;2022-12-15T01:09:57;16.80;42.40
35680;DHT22;21803;53.586;10.040;2022-12-15T01:12:40;16.80;42.40
35680;DHT22;21803;53.586;10.040;2022-12-15T01:15:25;16.80;42.40
35680;DHT22;21803;53.586;10.040;2022-12-15T01:18:09;16.80;42.40
35680;DHT22;21803;53.586;10.040;2022-12-15T01:20:57;16.80;42.40
35680;DHT22;21803;53.586;10.040;2022-12-15T01:23:24;16.80;42.40
35680;DHT22;21803;53.586;10.040;2022-12-15T01:25:51;16.80;42.40
35680;DHT22;21803;53.586;10.040;2022-12-15T01:28:17;16.70;42.30
35680;DHT22;21803;53.586;10.040;2022-12-15T01:30:43;16.80;42.40
35680;DHT22;21803;53.586;10.040;2022-12-15T01:33:09;16.80;42.40
35680;DHT22;21803;53.586;10.040;2022-12-15T01:35:35;16.80;42.40
35680;DHT22;21803;53.586;10.040;2022-12-15T01:38:00;16.80;42.40
35680;DHT22;21803;53.586;10.040;2022-12-15T01:40:26;16.70;42.30
35680;DHT22;21803;53.586;10.040;2022-12-15T01:43:34;16.80;42.40
35680;DHT22;21803;53.586;10.040;2022-12-15T01:46:06;16.80;42.40
35680;DHT22;21803;53.586;10.040;2022-12-15T01:48:48;16.70;42.30
35680;DHT22;21803;53.586;10.040;2022-12-15T01:51:23;16.80;42.30
35680;DHT22;21803;53.586;10.040;2022-12-15T01:53:54;16.80;42.30
35680;DHT22;21803;53.586;10.040;2022-12-15T01:56:22;16.80;42.30
35680;DHT22;21803;53.586;10.040;2022-12-15T01:58:50;16.80;42.30
35680;DHT22;21803;53.586;10.040;2022-12-15T02:01:16;16.80;42.30
35680;DHT22;21803;53.586;10.040;2022-12-15T02:03:43;16.80;42.30
35680;DHT22;21803;53.586;10.040;2022-12-15T02:06:09;16.80;42.30
35680;DHT22;21803;53.586;10.040;2022-12-15T02:08:36;16.80;42.30
35680;DHT22;21803;53.586;10.040;2022-12-15T02:13:56;16.80;42.20
35680;DHT22;21803;53.586;10.040;2022-12-15T02:21:52;16.70;42.10
35680;DHT22;21803;53.586;10.040;2022-12-15T02:24:52;16.80;42.10
35680;DHT22;21803;53.586;10.040;2022-12-15T02:27:33;16.80;42.10
35680;DHT22;21803;53.586;10.040;2022-12-15T02:33:20;16.80;42.10
35680;DHT22;21803;53.586;10.040;2022-12-15T02:36:03;16.80;42.10
35680;DHT22;21803;53.586;10.040;2022-12-15T02:38:38;16.70;42.00
35680;DHT22;21803;53.586;10.040;2022-12-15T02:43:56;16.70;42.00
35680;DHT22;21803;53.586;10.040;2022-12-15T02:46:30;16.70;41.90
35680;DHT22;21803;53.586;10.040;2022-12-15T02:49:21;16.80;42.00
35680;DHT22;21803;53.586;10.040;2022-12-15T02:52:30;16.70;42.00
35680;DHT22;21803;53.586;10.040;2022-12-15T02:55:12;16.70;41.90
35680;DHT22;21803;53.586;10.040;2022-12-15T02:57:59;16.70;41.90
35680;DHT22;21803;53.586;10.040;2022-12-15T03:00:28;16.70;41.90
35680;DHT22;21803;53.586;10.040;2022-12-15T03:02:55;18.10;42.50
35680;DHT22;21803;53.586;10.040;2022-12-15T03:05:22;16.70;41.80
35680;DHT22;21803;53.586;10.040;2022-12-15T03:07:53;16.70;41.90
35680;DHT22;21803;53.586;10.040;2022-12-15T03:10:22;16.70;41.80
35680;DHT22;21803;53.586;10.040;2022-12-15T03:12:48;16.70;41.80
35680;DHT22;21803;53.586;10.040;2022-12-15T03:15:18;16.70;41.80
35680;DHT22;21803;53.586;10.040;2022-12-15T03:17:43;16.70;41.70
35680;DHT22;21803;53.586;10.040;2022-12-15T03:20:09;16.70;41.70
35680;DHT22;21803;53.586;10.040;2022-12-15T03:22:36;16.70;41.70
35680;DHT22;21803;53.586;10.040;2022-12-15T03:25:02;16.70;41.70
35680;DHT22;21803;53.586;10.040;2022-12-15T03:27:28;16.70;41.70
35680;DHT22;21803;53.586;10.040;2022-12-15T03:29:53;16.70;41.60
35680;DHT22;21803;53.586;10.040;2022-12-15T03:32:19;16.70;41.60
35680;DHT22;21803;53.586;10.040;2022-12-15T03:34:44;16.70;41.60
35680;DHT22;21803;53.586;10.040;2022-12-15T03:37:10;16.70;41.60
35680;DHT22;21803;53.586;10.040;2022-12-15T03:39:36;16.60;41.60
35680;DHT22;21803;53.586;10.040;2022-12-15T03:42:01;16.70;41.60
35680;DHT22;21803;53.586;10.040;2022-12-15T03:44:27;16.70;41.60
35680;DHT22;21803;53.586;10.040;2022-12-15T03:46:52;16.70;41.60
35680;DHT22;21803;53.586;10.040;2022-12-15T03:49:26;16.70;41.60
35680;DHT22;21803;53.586;10.040;2022-12-15T03:51:51;16.70;41.50
35680;DHT22;21803;53.586;10.040;2022-12-15T03:54:18;16.70;41.50
35680;DHT22;21803;53.586;10.040;2022-12-15T03:56:43;16.70;41.50
35680;DHT22;21803;53.586;10.040;2022-12-15T03:59:09;16.70;41.50
35680;DHT22;21803;53.586;10.040;2022-12-15T04:01:35;16.70;41.50
35680;DHT22;21803;53.586;10.040;2022-12-15T04:04:02;16.70;41.60
35680;DHT22;21803;53.586;10.040;2022-12-15T04:06:28;16.70;41.50
35680;DHT22;21803;53.586;10.040;2022-12-15T04:08:54;16.70;41.50
35680;DHT22;21803;53.586;10.040;2022-12-15T04:11:20;16.70;41.50
35680;DHT22;21803;53.586;10.040;2022-12-15T04:13:46;16.70;41.50
35680;DHT22;21803;53.586;10.040;2022-12-15T04:16:11;16.70;41.50
35680;DHT22;21803;53.586;10.040;2022-12-15T04:18:37;16.70;41.40
35680;DHT22;21803;53.586;10.040;2022-12-15T04:21:03;16.70;41.40
35680;DHT22;21803;53.586;10.040;2022-12-15T04:23:28;16.70;41.40
35680;DHT22;21803;53.586;10.040;2022-12-15T04:25:54;16.70;41.40
35680;DHT22;21803;53.586;10.040;2022-12-15T04:28:38;16.70;41.40
35680;DHT22;21803;53.586;10.040;2022-12-15T04:31:32;16.70;41.40
35680;DHT22;21803;53.586;10.040;2022-12-15T04:34:22;16.70;41.40
35680;DHT22;21803;53.586;10.040;2022-12-15T04:37:09;16.70;41.40
35680;DHT22;21803;53.586;10.040;2022-12-15T04:39:53;16.70;41.40
35680;DHT22;21803;53.586;10.040;2022-12-15T04:42:41;16.70;41.40
35680;DHT22;21803;53.586;10.040;2022-12-15T04:45:26;16.70;42.00
35680;DHT22;21803;53.586;10.040;2022-12-15T04:48:10;16.70;41.40
35680;DHT22;21803;53.586;10.040;2022-12-15T04:50:54;16.70;41.30
35680;DHT22;21803;53.586;10.040;2022-12-15T04:53:39;16.70;41.90
35680;DHT22;21803;53.586;10.040;2022-12-15T04:56:23;16.70;41.30
35680;DHT22;21803;53.586;10.040;2022-12-15T04:59:07;16.70;41.30
35680;DHT22;21803;53.586;10.040;2022-12-15T05:01:51;16.70;41.30
35680;DHT22;21803;53.586;10.040;2022-12-15T05:04:35;16.70;41.90
35680;DHT22;21803;53.586;10.040;2022-12-15T05:07:19;16.70;41.30
35680;DHT22;21803;53.586;10.040;2022-12-15T05:10:04;16.70;41.30
35680;DHT22;21803;53.586;10.040;2022-12-15T05:12:48;16.70;41.30
35680;DHT22;21803;53.586;10.040;2022-12-15T05:15:33;16.70;41.30
35680;DHT22;21803;53.586;10.040;2022-12-15T05:18:18;16.70;41.30
35680;DHT22;21803;53.586;10.040;2022-12-15T05:21:02;16.70;41.20
35680;DHT22;21803;53.586;10.040;2022-12-15T05:23:46;16.70;41.30
35680;DHT22;21803;53.586;10.040;2022-12-15T05:26:30;16.70;41.30
35680;DHT22;21803;53.586;10.040;2022-12-15T05:29:14;16.70;41.30
35680;DHT22;21803;53.586;10.040;2022-12-15T05:31:58;16.70;41.20
35680;DHT22;21803;53.586;10.040;2022-12-15T05:34:26;16.70;41.20
35680;DHT22;21803;53.586;10.040;2022-12-15T05:36:53;16.70;41.20
35680;DHT22;21803;53.586;10.040;2022-12-15T05:39:19;16.70;41.20
35680;DHT22;21803;53.586;10.040;2022-12-15T05:41:45;16.70;41.20
35680;DHT22;21803;53.586;10.040;2022-12-15T05:44:10;16.70;41.30
35680;DHT22;21803;53.586;10.040;2022-12-15T05:46:36;16.70;41.20
35680;DHT22;21803;53.586;10.040;2022-12-15T05:49:07;16.70;41.20
35680;DHT22;21803;53.586;10.040;2022-12-15T05:51:36;16.70;41.20
35680;DHT22;21803;53.586;10.040;2022-12-15T05:54:02;16.70;41.20
35680;DHT22;21803;53.586;10.040;2022-12-15T05:56:28;16.70;41.20
35680;DHT22;21803;53.586;10.040;2022-12-15T05:58:55;16.70;41.20
35680;DHT22;21803;53.586;10.040;2022-12-15T06:01:21;16.70;41.20
35680;DHT22;21803;53.586;10.040;2022-12-15T06:03:47;16.70;41.20
35680;DHT22;21803;53.586;10.040;2022-12-15T06:06:12;16.70;41.10
35680;DHT22;21803;53.586;10.040;2022-12-15T06:08:40;16.70;41.10
35680;DHT22;21803;53.586;10.040;2022-12-15T06:11:06;16.70;41.10
35680;DHT22;21803;53.586;10.040;2022-12-15T06:13:32;16.70;41.20
35680;DHT22;21803;53.586;10.040;2022-12-15T06:16:24;16.70;41.20
35680;DHT22;21803;53.586;10.040;2022-12-15T06:18:51;16.70;41.10
35680;DHT22;21803;53.586;10.040;2022-12-15T06:21:22;16.70;41.10
35680;DHT22;21803;53.586;10.040;2022-12-15T06:23:49;16.70;41.10
35680;DHT22;21803;53.586;10.040;2022-12-15T06:26:20;16.70;41.10
35680;DHT22;21803;53.586;10.040;2022-12-15T06:28:46;16.70;41.20
35680;DHT22;21803;53.586;10.040;2022-12-15T06:31:13;16.70;41.10
35680;DHT22;21803;53.586;10.040;2022-12-15T06:33:39;16.70;41.20
35680;DHT22;21803;53.586;10.040;2022-12-15T06:36:07;16.70;41.10
35680;DHT22;21803;53.586;10.040;2022-12-15T06:38:33;16.70;41.10
35680;DHT22;21803;53.586;10.040;2022-12-15T06:41:00;16.70;41.10
35680;DHT22;21803;53.586;10.040;2022-12-15T06:43:27;16.70;41.10
35680;DHT22;21803;53.586;10.040;2022-12-15T06:45:53;16.70;41.70
35680;DHT22;21803;53.586;10.040;2022-12-15T06:48:21;16.70;41.10
35680;DHT22;21803;53.586;10.040;2022-12-15T06:50:47;16.70;41.00
35680;DHT22;21803;53.586;10.040;2022-12-15T06:53:14;16.70;41.10
35680;DHT22;21803;53.586;10.040;2022-12-15T06:55:40;16.70;41.10
35680;DHT22;21803;53.586;10.040;2022-12-15T06:58:06;16.70;41.00
35680;DHT22;21803;53.586;10.040;2022-12-15T07:00:33;16.70;41.10
35680;DHT22;21803;53.586;10.040;2022-12-15T07:03:01;16.70;41.10
35680;DHT22;21803;53.586;10.040;2022-12-15T07:05:27;16.70;41.10
35680;DHT22;21803;53.586;10.040;2022-12-15T07:07:52;16.60;41.00
35680;DHT22;21803;53.586;10.040;2022-12-15T07:10:18;16.70;41.10
35680;DHT22;21803;53.586;10.040;2022-12-15T07:12:43;16.70;41.00
35680;DHT22;21803;53.586;10.040;2022-12-15T07:15:09;16.70;41.10
35680;DHT22;21803;53.586;10.040;2022-12-15T07:17:36;16.70;41.10
35680;DHT22;21803;53.586;10.040;2022-12-15T07:20:03;16.60;41.00
35680;DHT22;21803;53.586;10.040;2022-12-15T07:22:29;16.70;41.10
35680;DHT22;21803;53.586;10.040;2022-12-15T07:24:55;16.70;41.00
35680;DHT22;21803;53.586;10.040;2022-12-15T07:27:20;16.70;41.00
35680;DHT22;21803;53.586;10.040;2022-12-15T07:29:46;16.70;41.00
35680;DHT22;21803;53.586;10.040;2022-12-15T07:32:11;16.70;41.10
35680;DHT22;21803;53.586;10.040;2022-12-15T07:34:37;16.70;41.00
35680;DHT22;21803;53.586;10.040;2022-12-15T07:37:02;16.70;41.00
35680;DHT22;21803;53.586;10.040;2022-12-15T07:39:28;16.70;41.00
35680;DHT22;21803;53.586;10.040;2022-12-15T07:41:54;16.70;41.00
35680;DHT22;21803;53.586;10.040;2022-12-15T07:44:19;16.70;41.00
35680;DHT22;21803;53.586;10.040;2022-12-15T07:46:45;16.70;41.00
35680;DHT22;21803;53.586;10.040;2022-12-15T07:49:11;16.70;41.00
35680;DHT22;21803;53.586;10.040;2022-12-15T07:51:37;16.70;41.10
35680;DHT22;21803;53.586;10.040;2022-12-15T07:54:03;16.70;41.00
35680;DHT22;21803;53.586;10.040;2022-12-15T07:56:28;16.70;41.00
35680;DHT22;21803;53.586;10.040;2022-12-15T07:58:54;16.70;41.00
35680;DHT22;21803;53.586;10.040;2022-12-15T08:01:19;16.70;41.00
35680;DHT22;21803;53.586;10.040;2022-12-15T08:03:46;16.70;41.00
35680;DHT22;21803;53.586;10.040;2022-12-15T08:06:13;16.70;41.00
35680;DHT22;21803;53.586;10.040;2022-12-15T08:08:39;16.70;41.00
35680;DHT22;21803;53.586;10.040;2022-12-15T08:11:12;16.70;41.00
35680;DHT22;21803;53.586;10.040;2022-12-15T08:13:40;16.70;41.00
35680;DHT22;21803;53.586;10.040;2022-12-15T08:16:06;16.70;41.00
35680;DHT22;21803;53.586;10.040;2022-12-15T08:18:31;16.70;41.00
35680;DHT22;21803;53.586;10.040;2022-12-15T08:21:05;16.70;41.00
35680;DHT22;21803;53.586;10.040;2022-12-15T08:23:31;16.70;41.00
35680;DHT22;21803;53.586;10.040;2022-12-15T08:26:12;16.70;41.00
35680;DHT22;21803;53.586;10.040;2022-12-15T08:28:39;16.70;41.00
35680;DHT22;21803;53.586;10.040;2022-12-15T08:31:07;16.70;41.00
35680;DHT22;21803;53.586;10.040;2022-12-15T08:33:33;16.70;41.00
35680;DHT22;21803;53.586;10.040;2022-12-15T08:36:03;16.70;41.00
35680;DHT22;21803;53.586;10.040;2022-12-15T08:38:29;16.70;41.00
35680;DHT22;21803;53.586;10.040;2022-12-15T08:40:55;16.70;41.00
35680;DHT22;21803;53.586;10.040;2022-12-15T08:43:21;16.70;41.00
35680;DHT22;21803;53.586;10.040;2022-12-15T08:45:47;16.70;41.00
35680;DHT22;21803;53.586;10.040;2022-12-15T08:48:12;16.70;41.00
35680;DHT22;21803;53.586;10.040;2022-12-15T08:50:42;16.70;41.00
35680;DHT22;21803;53.586;10.040;2022-12-15T08:53:09;16.70;40.90
35680;DHT22;21803;53.586;10.040;2022-12-15T08:55:34;16.70;41.00
35680;DHT22;21803;53.586;10.040;2022-12-15T08:58:00;16.70;40.90
35680;DHT22;21803;53.586;10.040;2022-12-15T09:00:25;16.70;41.00
35680;DHT22;21803;53.586;10.040;2022-12-15T09:02:51;16.70;41.00
35680;DHT22;21803;53.586;10.040;2022-12-15T09:05:16;16.70;41.00
35680;DHT22;21803;53.586;10.040;2022-12-15T09:07:42;16.70;40.90
35680;DHT22;21803;53.586;10.040;2022-12-15T09:10:07;16.70;41.00
35680;DHT22;21803;53.586;10.040;2022-12-15T09:12:33;16.70;41.00
35680;DHT22;21803;53.586;10.040;2022-12-15T09:14:58;16.70;40.90
35680;DHT22;21803;53.586;10.040;2022-12-15T09:17:24;16.70;40.90
35680;DHT22;21803;53.586;10.040;2022-12-15T09:19:49;16.70;41.00
35680;DHT22;21803;53.586;10.040;2022-12-15T09:22:15;16.70;40.90
35680;DHT22;21803;53.586;10.040;2022-12-15T09:24:40;16.70;40.90
35680;DHT22;21803;53.586;10.040;2022-12-15T09:27:06;16.70;40.90
35680;DHT22;21803;53.586;10.040;2022-12-15T09:29:31;16.70;41.00
35680;DHT22;21803;53.586;10.040;2022-12-15T09:31:57;16.70;40.90
35680;DHT22;21803;53.586;10.040;2022-12-15T09:34:23;16.70;40.90
35680;DHT22;21803;53.586;10.040;2022-12-15T09:36:49;16.70;40.90
35680;DHT22;21803;53.586;10.040;2022-12-15T09:39:14;16.70;40.90
35680;DHT22;21803;53.586;10.040;2022-12-15T09:41:50;16.70;40.90
35680;DHT22;21803;53.586;10.040;2022-12-15T09:44:18;16.70;41.00
35680;DHT22;21803;53.586;10.040;2022-12-15T09:49:35;15.00;40.20
35680;DHT22;21803;53.586;10.040;2022-12-15T09:52:05;16.70;41.00
35680;DHT22;21803;53.586;10.040;2022-12-15T09:54:32;16.70;40.90
35680;DHT22;21803;53.586;10.040;2022-12-15T09:57:04;16.70;40.90
35680;DHT22;21803;53.586;10.040;2022-12-15T09:59:40;16.70;40.90
35680;DHT22;21803;53.586;10.040;2022-12-15T10:07:31;16.70;40.90
35680;DHT22;21803;53.586;10.040;2022-12-15T10:10:10;16.70;40.90
35680;DHT22;21803;53.586;10.040;2022-12-15T10:12:41;16.70;41.00
35680;DHT22;21803;53.586;10.040;2022-12-15T10:15:19;16.70;41.00
35680;DHT22;21803;53.586;10.040;2022-12-15T10:20:44;16.70;41.00
35680;DHT22;21803;53.586;10.040;2022-12-15T10:23:12;16.70;41.00
35680;DHT22;21803;53.586;10.040;2022-12-15T10:25:38;16.70;41.00
35680;DHT22;21803;53.586;10.040;2022-12-15T10:28:39;16.70;41.00
35680;DHT22;21803;53.586;10.040;2022-12-15T10:31:21;16.70;41.00
35680;DHT22;21803;53.586;10.040;2022-12-15T10:33:55;16.70;41.10
35680;DHT22;21803;53.586;10.040;2022-12-15T10:36:21;16.70;41.00
35680;DHT22;21803;53.586;10.040;2022-12-15T10:38:47;16.70;41.00
35680;DHT22;21803;53.586;10.040;2022-12-15T10:41:23;16.70;41.10
35680;DHT22;21803;53.586;10.040;2022-12-15T10:43:53;16.70;41.10
35680;DHT22;21803;53.586;10.040;2022-12-15T10:46:27;16.70;41.00
35680;DHT22;21803;53.586;10.040;2022-12-15T10:49:38;16.70;41.00
35680;DHT22;21803;53.586;10.040;2022-12-15T10:51:53;16.70;41.00
35680;DHT22;21803;53.586;10.040;2022-12-15T10:54:20;16.70;41.10
35680;DHT22;21803;53.586;10.040;2022-12-15T10:56:57;16.70;41.00
35680;DHT22;21803;53.586;10.040;2022-12-15T10:59:34;16.70;41.10
35680;DHT22;21803;53.586;10.040;2022-12-15T11:07:27;16.70;41.10
35680;DHT22;21803;53.586;10.040;2022-12-15T11:09:59;16.70;41.10
35680;DHT22;21803;53.586;10.040;2022-12-15T11:12:28;16.70;41.10
35680;DHT22;21803;53.586;10.040;2022-12-15T11:18:17;16.70;41.10
35680;DHT22;21803;53.586;10.040;2022-12-15T11:21:25;16.70;41.10
35680;DHT22;21803;53.586;10.040;2022-12-15T11:26:54;16.70;41.10
35680;DHT22;21803;53.586;10.040;2022-12-15T11:32:12;16.60;41.20
35680;DHT22;21803;53.586;10.040;2022-12-15T11:34:41;16.70;41.20
35680;DHT22;21803;53.586;10.040;2022-12-15T11:43:04;16.70;41.20
35680;DHT22;21803;53.586;10.040;2022-12-15T11:45:47;16.70;41.20
35680;DHT22;21803;53.586;10.040;2022-12-15T11:48:21;16.70;41.30
35680;DHT22;21803;53.586;10.040;2022-12-15T11:50:55;16.70;41.30
35680;DHT22;21803;53.586;10.040;2022-12-15T11:56:30;16.70;41.40
35680;DHT22;21803;53.586;10.040;2022-12-15T12:07:44;16.60;41.40
35680;DHT22;21803;53.586;10.040;2022-12-15T12:10:30;16.70;41.40
35680;DHT22;21803;53.586;10.040;2022-12-15T12:16:05;16.70;41.50
35680;DHT22;21803;53.586;10.040;2022-12-15T12:18:41;16.70;41.40
35680;DHT22;21803;53.586;10.040;2022-12-15T12:21:14;16.70;41.50
35680;DHT22;21803;53.586;10.040;2022-12-15T12:24:00;16.70;41.50
35680;DHT22;21803;53.586;10.040;2022-12-15T12:26:55;16.70;41.50
35680;DHT22;21803;53.586;10.040;2022-12-15T12:32:14;16.70;41.50
35680;DHT22;21803;53.586;10.040;2022-12-15T12:35:20;16.70;41.50
35680;DHT22;21803;53.586;10.040;2022-12-15T12:37:50;16.70;41.50
35680;DHT22;21803;53.586;10.040;2022-12-15T12:40:21;16.70;41.50
35680;DHT22;21803;53.586;10.040;2022-12-15T12:45:18;16.70;41.50
35680;DHT22;21803;53.586;10.040;2022-12-15T12:47:47;16.70;41.50
35680;DHT22;21803;53.586;10.040;2022-12-15T12:50:19;16.70;41.50
35680;DHT22;21803;53.586;10.040;2022-12-15T12:52:51;16.70;41.60
35680;DHT22;21803;53.586;10.040;2022-12-15T12:55:25;16.70;41.60
35680;DHT22;21803;53.586;10.040;2022-12-15T12:57:52;16.70;41.60
35680;DHT22;21803;53.586;10.040;2022-12-15T13:00:26;16.70;41.70
35680;DHT22;21803;53.586;10.040;2022-12-15T13:05:43;16.70;41.70
35680;DHT22;21803;53.586;10.040;2022-12-15T13:10:40;16.70;41.80
35680;DHT22;21803;53.586;10.040;2022-12-15T13:16:18;16.70;41.80
35680;DHT22;21803;53.586;10.040;2022-12-15T13:19:02;16.70;41.80
35680;DHT22;21803;53.586;10.040;2022-12-15T13:24:33;16.70;41.80
35680;DHT22;21803;53.586;10.040;2022-12-15T13:27:12;16.70;41.80
35680;DHT22;21803;53.586;10.040;2022-12-15T13:29:58;16.70;41.80
35680;DHT22;21803;53.586;10.040;2022-12-15T13:32:32;16.70;41.80
35680;DHT22;21803;53.586;10.040;2022-12-15T13:37:56;16.70;41.90
35680;DHT22;21803;53.586;10.040;2022-12-15T13:40:27;16.70;41.90
35680;DHT22;21803;53.586;10.040;2022-12-15T13:50:51;16.70;41.80
35680;DHT22;21803;53.586;10.040;2022-12-15T13:53:22;16.70;41.80
35680;DHT22;21803;53.586;10.040;2022-12-15T13:55:59;16.70;41.80
35680;DHT22;21803;53.586;10.040;2022-12-15T13:58:32;16.70;41.80
35680;DHT22;21803;53.586;10.040;2022-12-15T14:01:02;16.60;41.70
35680;DHT22;21803;53.586;10.040;2022-12-15T14:03:29;16.70;41.80
35680;DHT22;21803;53.586;10.040;2022-12-15T14:05:57;16.70;41.80
35680;DHT22;21803;53.586;10.040;2022-12-15T14:08:24;16.70;41.80
35680;DHT22;21803;53.586;10.040;2022-12-15T14:10:53;16.60;41.80
35680;DHT22;21803;53.586;10.040;2022-12-15T14:13:32;16.70;41.70
35680;DHT22;21803;53.586;10.040;2022-12-15T14:18:33;16.70;41.70
35680;DHT22;21803;53.586;10.040;2022-12-15T14:21:00;16.70;41.80
35680;DHT22;21803;53.586;10.040;2022-12-15T14:23:38;16.60;41.70
35680;DHT22;21803;53.586;10.040;2022-12-15T14:26:07;16.70;41.70
35680;DHT22;21803;53.586;10.040;2022-12-15T14:28:35;16.70;42.30
35680;DHT22;21803;53.586;10.040;2022-12-15T14:31:21;16.70;41.70
35680;DHT22;21803;53.586;10.040;2022-12-15T14:34:00;16.70;41.70
35680;DHT22;21803;53.586;10.040;2022-12-15T14:36:27;16.70;41.70
35680;DHT22;21803;53.586;10.040;2022-12-15T14:39:00;16.70;41.70
35680;DHT22;21803;53.586;10.040;2022-12-15T14:41:38;16.70;41.70
35680;DHT22;21803;53.586;10.040;2022-12-15T14:44:16;16.70;41.70
35680;DHT22;21803;53.586;10.040;2022-12-15T14:46:46;16.60;41.70
35680;DHT22;21803;53.586;10.040;2022-12-15T14:49:23;16.70;41.70
35680;DHT22;21803;53.586;10.040;2022-12-15T14:51:52;16.70;41.60
35680;DHT22;21803;53.586;10.040;2022-12-15T14:59:49;16.70;41.70
35680;DHT22;21803;53.586;10.040;2022-12-15T15:02:28;16.70;41.70
35680;DHT22;21803;53.586;10.040;2022-12-15T15:05:01;16.70;41.70
35680;DHT22;21803;53.586;10.040;2022-12-15T15:07:30;16.70;42.30
35680;DHT22;21803;53.586;10.040;2022-12-15T15:09:56;16.70;41.70
35680;DHT22;21803;53.586;10.040;2022-12-15T15:12:23;16.70;41.70
35680;DHT22;21803;53.586;10.040;2022-12-15T15:15:03;16.60;41.70
35680;DHT22;21803;53.586;10.040;2022-12-15T15:17:37;16.70;41.70
35680;DHT22;21803;53.586;10.040;2022-12-15T15:20:26;16.60;41.70
35680;DHT22;21803;53.586;10.040;2022-12-15T15:23:12;16.60;41.60
35680;DHT22;21803;53.586;10.040;2022-12-15T15:30:48;16.60;41.70
35680;DHT22;21803;53.586;10.040;2022-12-15T15:33:15;16.70;41.80
35680;DHT22;21803;53.586;10.040;2022-12-15T15:35:42;16.60;41.70
35680;DHT22;21803;53.586;10.040;2022-12-15T15:38:17;16.60;41.70
35680;DHT22;21803;53.586;10.040;2022-12-15T15:40:52;16.60;41.70
35680;DHT22;21803;53.586;10.040;2022-12-15T15:43:19;16.60;41.70
35680;DHT22;21803;53.586;10.040;2022-12-15T15:45:46;16.60;41.70
35680;DHT22;21803;53.586;10.040;2022-12-15T15:48:17;16.60;41.70
35680;DHT22;21803;53.586;10.040;2022-12-15T15:50:45;16.60;41.70
35680;DHT22;21803;53.586;10.040;2022-12-15T15:53:15;16.60;41.70
35680;DHT22;21803;53.586;10.040;2022-12-15T15:55:43;16.60;41.70
35680;DHT22;21803;53.586;10.040;2022-12-15T15:58:10;16.60;41.60
35680;DHT22;21803;53.586;10.040;2022-12-15T16:00:36;16.70;41.70
35680;DHT22;21803;53.586;10.040;2022-12-15T16:03:01;16.60;41.60
35680;DHT22;21803;53.586;10.040;2022-12-15T16:05:27;16.60;41.70
35680;DHT22;21803;53.586;10.040;2022-12-15T16:07:52;16.60;41.70
35680;DHT22;21803;53.586;10.040;2022-12-15T16:10:18;16.60;41.60
35680;DHT22;21803;53.586;10.040;2022-12-15T16:12:51;16.60;41.70
35680;DHT22;21803;53.586;10.040;2022-12-15T16:15:25;16.60;41.70
35680;DHT22;21803;53.586;10.040;2022-12-15T16:17:51;16.60;41.70
35680;DHT22;21803;53.586;10.040;2022-12-15T16:20:19;16.60;41.70
35680;DHT22;21803;53.586;10.040;2022-12-15T16:22:48;16.60;41.70
35680;DHT22;21803;53.586;10.040;2022-12-15T16:25:19;16.60;41.70
35680;DHT22;21803;53.586;10.040;2022-12-15T16:27:45;16.60;41.70
35680;DHT22;21803;53.586;10.040;2022-12-15T16:30:21;16.60;41.70
35680;DHT22;21803;53.586;10.040;2022-12-15T16:32:48;16.60;41.70
35680;DHT22;21803;53.586;10.040;2022-12-15T16:35:14;16.70;41.80
35680;DHT22;21803;53.586;10.040;2022-12-15T16:37:41;16.60;41.70
35680;DHT22;21803;53.586;10.040;2022-12-15T16:40:19;16.60;41.70
35680;DHT22;21803;53.586;10.040;2022-12-15T16:42:50;16.60;41.70
35680;DHT22;21803;53.586;10.040;2022-12-15T16:45:18;16.70;41.80
35680;DHT22;21803;53.586;10.040;2022-12-15T16:47:44;16.70;41.80
35680;DHT22;21803;53.586;10.040;2022-12-15T16:50:19;16.70;41.70
35680;DHT22;21803;53.586;10.040;2022-12-15T16:52:47;16.60;41.80
35680;DHT22;21803;53.586;10.040;2022-12-15T16:55:27;16.60;41.70
35680;DHT22;21803;53.586;10.040;2022-12-15T16:57:58;16.60;41.70
35680;DHT22;21803;53.586;10.040;2022-12-15T17:00:28;16.60;41.70
35680;DHT22;21803;53.586;10.040;2022-12-15T17:02:54;16.60;41.70
35680;DHT22;21803;53.586;10.040;2022-12-15T17:05:20;16.60;41.70
35680;DHT22;21803;53.586;10.040;2022-12-15T17:07:53;16.60;41.70
35680;DHT22;21803;53.586;10.040;2022-12-15T17:10:21;16.60;41.70
35680;DHT22;21803;53.586;10.040;2022-12-15T17:12:48;16.60;41.70
35680;DHT22;21803;53.586;10.040;2022-12-15T17:15:25;17.50;42.10
35680;DHT22;21803;53.586;10.040;2022-12-15T17:17:51;16.60;41.70
35680;DHT22;21803;53.586;10.040;2022-12-15T17:20:20;16.60;41.70
35680;DHT22;21803;53.586;10.040;2022-12-15T17:22:48;16.60;41.70
35680;DHT22;21803;53.586;10.040;2022-12-15T17:25:16;16.60;41.70
35680;DHT22;21803;53.586;10.040;2022-12-15T17:27:43;16.60;41.70